Impacts TAF Board
For situational awareness. Not to be used for flight planning purposes.
IDs:

KHOU - Houston/Hobby Arpt, TX, US

Issued at 1732 UTC 06 Jul 2020
Updated at 1756 UTC 06 Jul 2020
Potential Impact None Slight Moderate High
Time1753Z 06/18Z 06/19Z 06/20Z 06/21Z 06/22Z 06/23Z 07/00Z 07/01Z 07/02Z 07/03Z 07/04Z 07/05Z 07/06Z>>
Type OBS PRVL PRVL PRVL PRVL PRVL PRVL PRVL PRVL PRVL PRVL PRVL PRVL PRVL
VIS 10 >6 >6 >6 >6 >6 >6 >6 >6 >6 >6 >6 >6 >6
CIG 160 250 250 250 150 150 150 100 100 100 100 100 100 100
Cover OVC OVC OVC OVC BKN BKN BKN BKN BKN BKN BKN BKN BKN BKN
FltCat VFR VFR VFR VFR VFR VFR VFR VFR VFR VFR VFR VFR VFR VFR
WX -- VCSH VCSH VCSH VCTS VCTS VCTS -- -- -- -- -- -- --
WDir 190 200 200 200 190 190 190 VRB VRB VRB VRB VRB VRB VRB
WSpd 8 11 11 11 7 7 7 3 3 3 3 3 3 3
WGst -- 17 17 17 -- -- -- -- -- -- -- -- -- --
R04/22
XWnd -4 -4 -4 -4 -4 -4 -4 VRB VRB VRB VRB VRB VRB VRB
XGst -- -7 -7 -7 -- -- -- -- -- -- -- -- -- --
HWnd -7 -10 -10 -10 -6 -6 -6 VRB VRB VRB VRB VRB VRB VRB
HGst -- -16 -16 -16 -- -- -- -- -- -- -- -- -- --
R12/30
XWnd -7 -10 -10 -10 -6 -6 -6 VRB VRB VRB VRB VRB VRB VRB
XGst -- -16 -16 -16 -- -- -- -- -- -- -- -- -- --
HWnd 4 4 4 4 4 4 4 VRB VRB VRB VRB VRB VRB VRB
HGst -- 7 7 7 -- -- -- -- -- -- -- -- -- --
R17/35
XWnd -2 -4 -4 -4 -1 -1 -1 VRB VRB VRB VRB VRB VRB VRB
XGst -- -6 -6 -6 -- -- -- -- -- -- -- -- -- --
HWnd 8 10 10 10 7 7 7 VRB VRB VRB VRB VRB VRB VRB
HGst -- 16 16 16 -- -- -- -- -- -- -- -- -- --
Raw TAF
KHOU 061732Z 0618/0718 20011G17KT P6SM VCSH SCT030 OVC250
  FM062100 19007KT P6SM VCTS SCT035CB BKN150
  FM070000 VRB03KT P6SM SCT025 BKN100
  FM071600 VRB03KT P6SM VCTS BKN035CB


Raw METAR
KHOU 061753Z 19008KT 10SM FEW030 OVC160 32/24 A2993 RMK AO2 SLP138 T03220239 10322 20278 50001
KHOU 061653Z 20011G17KT 10SM SCT030 SCT160 OVC250 32/24 A2994 RMK AO2 SLP143 T03220239
KHOU 061553Z 23011KT 10SM SCT025 SCT120 BKN250 32/24 A2993 RMK AO2 LTG DSNT SE SLP139 T03170239
KHOU 061453Z 23007KT 10SM SCT020 SCT150 BKN250 31/24 A2992 RMK AO2 SLP137 T03060244 51015

METAR Board
Radar Display
Forecast Discussion
For situational awareness. Not to be used for flight planning purposes.